KAUM/AUM METAR and TAF weather

Enter ICAO airport designator
Station Type Date Time Source
KAUM METAR 2019/10/20 18:56 UTC NOAA

KAUM 201856Z AUTO 17007KT 10SM CLR 21/M06 A2984 RMK AO2


Station Type Date Time Source
KAUM Decoded METAR 2019/10/20 18:56 UTC NOAA

Austin Municipal, MN, United States (KAUM) 43-40N 092-56W
Oct 20, 2019 - 02:56 PM EDT / 2019.10.20 1856 UTC
Wind: from the S (170 degrees) at 8 MPH (7 KT):0
Visibility: 10 mile(s):0
Sky conditions: clear
Temperature: 69 F (21 C)
Dew Point: 21 F (-6 C)
Relative Humidity: 15%
Pressure (altimeter): 29.84 in. Hg (1010 hPa)
ob: KAUM 201856Z AUTO 17007KT 10SM CLR 21/M06 A2984 RMK AO2
cycle: 19

Station Type Date Time Source
KAUM TAF UTC NOAA

Error!

Example: see airport list